sensor_id;sensor_type;location;lat;lon;timestamp;P1;durP1;ratioP1;P2;durP2;ratioP2
16033;SDS011;8121;51.418;6.998;2023-05-07T00:09:56;1.40;;;1.30;;
16033;SDS011;8121;51.418;6.998;2023-05-07T00:19:58;1.20;;;1.10;;
16033;SDS011;8121;51.418;6.998;2023-05-07T00:30:02;1.77;;;1.17;;
16033;SDS011;8121;51.418;6.998;2023-05-07T00:40:05;1.27;;;1.10;;
16033;SDS011;8121;51.418;6.998;2023-05-07T00:50:10;1.10;;;1.00;;
16033;SDS011;8121;51.418;6.998;2023-05-07T01:00:12;2.53;;;1.50;;
16033;SDS011;8121;51.418;6.998;2023-05-07T01:10:17;1.00;;;1.00;;
16033;SDS011;8121;51.418;6.998;2023-05-07T01:20:19;1.40;;;1.30;;
16033;SDS011;8121;51.418;6.998;2023-05-07T01:30:22;1.70;;;1.10;;
16033;SDS011;8121;51.418;6.998;2023-05-07T01:40:25;1.30;;;1.20;;
16033;SDS011;8121;51.418;6.998;2023-05-07T01:50:28;1.40;;;1.30;;
16033;SDS011;8121;51.418;6.998;2023-05-07T02:00:31;2.27;;;1.10;;
16033;SDS011;8121;51.418;6.998;2023-05-07T02:10:38;1.67;;;1.40;;
16033;SDS011;8121;51.418;6.998;2023-05-07T02:20:41;1.87;;;1.40;;
16033;SDS011;8121;51.418;6.998;2023-05-07T02:30:45;1.23;;;1.13;;
16033;SDS011;8121;51.418;6.998;2023-05-07T02:40:46;1.63;;;1.53;;
16033;SDS011;8121;51.418;6.998;2023-05-07T02:50:49;1.73;;;1.63;;
16033;SDS011;8121;51.418;6.998;2023-05-07T03:00:51;1.57;;;1.47;;
16033;SDS011;8121;51.418;6.998;2023-05-07T03:10:56;1.90;;;1.80;;
16033;SDS011;8121;51.418;6.998;2023-05-07T03:21:02;2.23;;;1.80;;
16033;SDS011;8121;51.418;6.998;2023-05-07T03:31:08;1.63;;;1.53;;
16033;SDS011;8121;51.418;6.998;2023-05-07T03:41:21;2.87;;;2.67;;
16033;SDS011;8121;51.418;6.998;2023-05-07T03:51:24;2.00;;;1.90;;
16033;SDS011;8121;51.418;6.998;2023-05-07T04:01:26;1.53;;;1.43;;
16033;SDS011;8121;51.418;6.998;2023-05-07T04:11:29;3.57;;;3.27;;
16033;SDS011;8121;51.418;6.998;2023-05-07T04:21:30;6.97;;;4.40;;
16033;SDS011;8121;51.418;6.998;2023-05-07T04:31:34;2.60;;;2.40;;
16033;SDS011;8121;51.418;6.998;2023-05-07T04:41:36;2.47;;;2.37;;
16033;SDS011;8121;51.418;6.998;2023-05-07T04:51:39;2.17;;;1.50;;
16033;SDS011;8121;51.418;6.998;2023-05-07T05:01:42;2.20;;;1.63;;
16033;SDS011;8121;51.418;6.998;2023-05-07T05:11:46;2.97;;;2.10;;
16033;SDS011;8121;51.418;6.998;2023-05-07T05:21:48;2.70;;;2.50;;
16033;SDS011;8121;51.418;6.998;2023-05-07T05:31:52;2.60;;;1.80;;
16033;SDS011;8121;51.418;6.998;2023-05-07T05:41:54;3.77;;;1.90;;
16033;SDS011;8121;51.418;6.998;2023-05-07T05:51:57;2.20;;;2.10;;
16033;SDS011;8121;51.418;6.998;2023-05-07T06:01:58;1.53;;;1.43;;
16033;SDS011;8121;51.418;6.998;2023-05-07T06:12:02;8.83;;;2.73;;
16033;SDS011;8121;51.418;6.998;2023-05-07T06:22:03;2.13;;;1.93;;
16033;SDS011;8121;51.418;6.998;2023-05-07T06:32:10;1.93;;;1.80;;
16033;SDS011;8121;51.418;6.998;2023-05-07T06:42:13;1.50;;;1.20;;
16033;SDS011;8121;51.418;6.998;2023-05-07T06:52:16;1.97;;;1.87;;
16033;SDS011;8121;51.418;6.998;2023-05-07T07:02:27;2.73;;;0.97;;
16033;SDS011;8121;51.418;6.998;2023-05-07T07:12:30;1.30;;;1.20;;
16033;SDS011;8121;51.418;6.998;2023-05-07T07:22:33;1.60;;;1.17;;
16033;SDS011;8121;51.418;6.998;2023-05-07T07:32:36;2.93;;;2.33;;
16033;SDS011;8121;51.418;6.998;2023-05-07T07:42:38;1.87;;;1.50;;
16033;SDS011;8121;51.418;6.998;2023-05-07T07:52:41;1.57;;;1.27;;
16033;SDS011;8121;51.418;6.998;2023-05-07T08:02:43;2.40;;;2.30;;
16033;SDS011;8121;51.418;6.998;2023-05-07T08:12:46;4.50;;;1.80;;
16033;SDS011;8121;51.418;6.998;2023-05-07T08:22:48;3.43;;;2.00;;
16033;SDS011;8121;51.418;6.998;2023-05-07T08:32:52;2.60;;;1.20;;
16033;SDS011;8121;51.418;6.998;2023-05-07T08:42:54;1.90;;;1.60;;
16033;SDS011;8121;51.418;6.998;2023-05-07T08:52:58;1.23;;;1.13;;
16033;SDS011;8121;51.418;6.998;2023-05-07T09:03:00;3.87;;;1.57;;
16033;SDS011;8121;51.418;6.998;2023-05-07T09:13:04;2.17;;;1.23;;
16033;SDS011;8121;51.418;6.998;2023-05-07T09:23:05;1.97;;;1.27;;
16033;SDS011;8121;51.418;6.998;2023-05-07T09:33:09;1.00;;;0.90;;
16033;SDS011;8121;51.418;6.998;2023-05-07T09:43:10;0.70;;;0.50;;
16033;SDS011;8121;51.418;6.998;2023-05-07T09:53:14;1.53;;;0.83;;
16033;SDS011;8121;51.418;6.998;2023-05-07T10:03:16;1.40;;;1.30;;
16033;SDS011;8121;51.418;6.998;2023-05-07T10:13:19;0.70;;;0.60;;
16033;SDS011;8121;51.418;6.998;2023-05-07T10:23:23;1.37;;;1.27;;
16033;SDS011;8121;51.418;6.998;2023-05-07T10:33:28;3.20;;;1.77;;
16033;SDS011;8121;51.418;6.998;2023-05-07T10:43:40;2.43;;;1.37;;
16033;SDS011;8121;51.418;6.998;2023-05-07T10:53:44;1.60;;;1.50;;
16033;SDS011;8121;51.418;6.998;2023-05-07T11:14:16;2.53;;;2.33;;
16033;SDS011;8121;51.418;6.998;2023-05-07T11:24:47;2.67;;;2.40;;
16033;SDS011;8121;51.418;6.998;2023-05-07T11:34:52;4.57;;;1.77;;
16033;SDS011;8121;51.418;6.998;2023-05-07T11:44:54;2.80;;;2.27;;
16033;SDS011;8121;51.418;6.998;2023-05-07T11:54:58;2.60;;;2.40;;
16033;SDS011;8121;51.418;6.998;2023-05-07T12:05:00;2.23;;;2.03;;
16033;SDS011;8121;51.418;6.998;2023-05-07T12:15:04;2.73;;;2.17;;
16033;SDS011;8121;51.418;6.998;2023-05-07T12:25:07;5.00;;;2.83;;
16033;SDS011;8121;51.418;6.998;2023-05-07T12:35:11;2.53;;;2.33;;
16033;SDS011;8121;51.418;6.998;2023-05-07T12:45:14;1.63;;;1.37;;
16033;SDS011;8121;51.418;6.998;2023-05-07T12:55:18;1.53;;;1.07;;
16033;SDS011;8121;51.418;6.998;2023-05-07T13:05:19;3.37;;;3.00;;
16033;SDS011;8121;51.418;6.998;2023-05-07T13:15:22;4.67;;;3.50;;
16033;SDS011;8121;51.418;6.998;2023-05-07T13:25:24;3.10;;;2.33;;
16033;SDS011;8121;51.418;6.998;2023-05-07T13:35:27;8.43;;;3.30;;
16033;SDS011;8121;51.418;6.998;2023-05-07T13:45:29;10.27;;;3.80;;
16033;SDS011;8121;51.418;6.998;2023-05-07T13:55:32;2.70;;;2.50;;
16033;SDS011;8121;51.418;6.998;2023-05-07T14:05:34;2.63;;;2.40;;
16033;SDS011;8121;51.418;6.998;2023-05-07T14:15:37;3.63;;;3.33;;
16033;SDS011;8121;51.418;6.998;2023-05-07T14:25:38;2.40;;;2.20;;
16033;SDS011;8121;51.418;6.998;2023-05-07T14:35:41;1.90;;;1.80;;
16033;SDS011;8121;51.418;6.998;2023-05-07T14:45:47;3.30;;;2.20;;
16033;SDS011;8121;51.418;6.998;2023-05-07T14:55:51;2.53;;;2.33;;
16033;SDS011;8121;51.418;6.998;2023-05-07T15:05:52;3.20;;;3.00;;
16033;SDS011;8121;51.418;6.998;2023-05-07T15:15:56;3.50;;;3.20;;
16033;SDS011;8121;51.418;6.998;2023-05-07T15:25:57;3.10;;;2.80;;
16033;SDS011;8121;51.418;6.998;2023-05-07T15:36:07;3.73;;;2.83;;
16033;SDS011;8121;51.418;6.998;2023-05-07T15:46:08;8.83;;;3.27;;
16033;SDS011;8121;51.418;6.998;2023-05-07T15:56:12;2.23;;;2.00;;
16033;SDS011;8121;51.418;6.998;2023-05-07T16:06:19;3.17;;;2.80;;
16033;SDS011;8121;51.418;6.998;2023-05-07T16:16:37;2.33;;;2.13;;
16033;SDS011;8121;51.418;6.998;2023-05-07T17:20:06;1.60;;;1.50;;
16033;SDS011;8121;51.418;6.998;2023-05-07T17:30:16;1.20;;;1.10;;
16033;SDS011;8121;51.418;6.998;2023-05-07T17:40:19;2.03;;;1.50;;
16033;SDS011;8121;51.418;6.998;2023-05-07T17:50:22;1.63;;;1.53;;
16033;SDS011;8121;51.418;6.998;2023-05-07T18:00:29;1.03;;;0.93;;
16033;SDS011;8121;51.418;6.998;2023-05-07T18:10:31;1.00;;;1.00;;
16033;SDS011;8121;51.418;6.998;2023-05-07T18:20:34;1.20;;;1.10;;
16033;SDS011;8121;51.418;6.998;2023-05-07T18:30:36;2.10;;;1.10;;
16033;SDS011;8121;51.418;6.998;2023-05-07T18:40:39;6.50;;;1.73;;
16033;SDS011;8121;51.418;6.998;2023-05-07T18:50:43;1.47;;;1.37;;
16033;SDS011;8121;51.418;6.998;2023-05-07T19:00:46;1.93;;;1.70;;
16033;SDS011;8121;51.418;6.998;2023-05-07T19:10:48;1.60;;;1.50;;
16033;SDS011;8121;51.418;6.998;2023-05-07T19:20:51;2.70;;;2.50;;
16033;SDS011;8121;51.418;6.998;2023-05-07T19:30:53;1.83;;;1.43;;
16033;SDS011;8121;51.418;6.998;2023-05-07T19:40:57;1.60;;;1.50;;
16033;SDS011;8121;51.418;6.998;2023-05-07T19:50:59;1.80;;;1.70;;
16033;SDS011;8121;51.418;6.998;2023-05-07T20:01:04;1.93;;;1.83;;
16033;SDS011;8121;51.418;6.998;2023-05-07T20:11:06;1.67;;;1.57;;
16033;SDS011;8121;51.418;6.998;2023-05-07T20:21:10;1.90;;;1.80;;
16033;SDS011;8121;51.418;6.998;2023-05-07T20:31:13;3.13;;;1.80;;
16033;SDS011;8121;51.418;6.998;2023-05-07T20:51:53;2.00;;;1.80;;
16033;SDS011;8121;51.418;6.998;2023-05-07T21:01:57;3.23;;;2.90;;
16033;SDS011;8121;51.418;6.998;2023-05-07T21:12:00;1.93;;;1.70;;
16033;SDS011;8121;51.418;6.998;2023-05-07T21:22:04;2.00;;;1.90;;
16033;SDS011;8121;51.418;6.998;2023-05-07T21:32:05;2.00;;;1.90;;
16033;SDS011;8121;51.418;6.998;2023-05-07T21:42:10;1.70;;;1.60;;
16033;SDS011;8121;51.418;6.998;2023-05-07T21:52:15;3.03;;;2.83;;
16033;SDS011;8121;51.418;6.998;2023-05-07T22:02:34;2.07;;;1.97;;
16033;SDS011;8121;51.418;6.998;2023-05-07T22:12:36;2.10;;;1.63;;
16033;SDS011;8121;51.418;6.998;2023-05-07T22:33:44;4.00;;;3.60;;
16033;SDS011;8121;51.418;6.998;2023-05-07T22:43:46;3.70;;;2.93;;
16033;SDS011;8121;51.418;6.998;2023-05-07T22:53:49;3.03;;;2.83;;
16033;SDS011;8121;51.418;6.998;2023-05-07T23:03:51;3.73;;;2.90;;
16033;SDS011;8121;51.418;6.998;2023-05-07T23:24:23;3.50;;;3.20;;
16033;SDS011;8121;51.418;6.998;2023-05-07T23:34:26;5.73;;;4.37;;
16033;SDS011;8121;51.418;6.998;2023-05-07T23:44:28;4.73;;;4.33;;
16033;SDS011;8121;51.418;6.998;2023-05-07T23:54:34;4.03;;;3.53;;
